createdAt,value
2022-10-09T00:00:18.991Z,5.45
2022-10-09T00:03:21.276Z,5.30
2022-10-09T00:06:25.037Z,6.45
2022-10-09T00:09:27.219Z,5.35
2022-10-09T00:12:29.445Z,4.78
2022-10-09T00:15:33.010Z,5.38
2022-10-09T00:18:35.771Z,5.22
2022-10-09T00:21:37.955Z,6.00
2022-10-09T00:24:40.219Z,5.00
2022-10-09T00:27:42.424Z,6.10
2022-10-09T00:30:46.032Z,5.40
2022-10-09T00:33:48.627Z,6.05
2022-10-09T00:36:50.746Z,5.35
2022-10-09T00:39:53.189Z,6.07
2022-10-09T00:42:57.091Z,5.75
2022-10-09T00:46:00.793Z,5.55
2022-10-09T00:49:14.604Z,5.00
2022-10-09T00:52:16.823Z,5.32
2022-10-09T00:55:19.134Z,6.00
2022-10-09T00:58:22.131Z,6.32
2022-10-09T01:01:26.129Z,5.60
2022-10-09T01:04:28.404Z,6.28
2022-10-09T01:07:35.517Z,6.20
2022-10-09T01:10:44.795Z,7.13
2022-10-09T01:13:51.746Z,7.55
2022-10-09T01:17:04.086Z,6.57
2022-10-09T01:20:22.325Z,7.55
2022-10-09T01:23:46.690Z,7.22
2022-10-09T01:27:10.069Z,6.63
2022-10-09T01:30:13.065Z,6.88
2022-10-09T01:33:15.865Z,6.95
2022-10-09T01:36:18.779Z,7.78
2022-10-09T01:39:22.801Z,6.45
2022-10-09T01:42:27.651Z,7.10
2022-10-09T01:45:38.018Z,6.63
2022-10-09T01:48:40.353Z,6.10
2022-10-09T01:51:49.775Z,7.13
2022-10-09T01:55:08.541Z,6.40
2022-10-09T01:58:18.715Z,6.65
2022-10-09T02:01:22.393Z,6.80
2022-10-09T02:04:25.244Z,8.20
2022-10-09T02:07:28.553Z,6.55
2022-10-09T02:10:31.411Z,6.90
2022-10-09T02:13:35.529Z,6.20
2022-10-09T02:16:39.401Z,7.50
2022-10-09T02:19:43.750Z,6.68
2022-10-09T02:22:46.627Z,6.63
2022-10-09T02:25:49.538Z,7.43
2022-10-09T02:28:53.210Z,7.40
2022-10-09T02:31:55.412Z,6.70
2022-10-09T02:34:57.633Z,7.20
2022-10-09T02:37:59.850Z,6.50
2022-10-09T02:41:02.291Z,7.00
2022-10-09T02:44:06.150Z,6.50
2022-10-09T02:47:08.409Z,6.30
2022-10-09T02:50:10.645Z,7.75
2022-10-09T02:53:12.864Z,6.45
2022-10-09T02:56:15.041Z,7.18
2022-10-09T02:59:18.876Z,7.35
2022-10-09T03:02:21.135Z,7.10
2022-10-09T03:05:23.422Z,7.53
2022-10-09T03:08:25.597Z,6.47
2022-10-09T03:11:27.822Z,7.07
2022-10-09T03:14:31.573Z,7.28
2022-10-09T03:17:33.712Z,6.88
2022-10-09T03:20:35.934Z,7.53
2022-10-09T03:23:38.434Z,7.03
2022-10-09T03:26:40.643Z,7.00
2022-10-09T03:29:44.199Z,6.57
2022-10-09T03:32:46.799Z,7.90
2022-10-09T03:35:49.893Z,6.50
2022-10-09T03:38:52.493Z,6.28
2022-10-09T03:41:54.778Z,6.45
2022-10-09T03:45:00.802Z,7.60
2022-10-09T03:48:03.026Z,7.55
2022-10-09T03:51:05.556Z,6.43
2022-10-09T03:54:07.719Z,7.35
2022-10-09T03:57:09.930Z,7.28
2022-10-09T04:00:14.794Z,6.80
2022-10-09T04:03:17.004Z,6.95
2022-10-09T04:06:19.199Z,6.70
2022-10-09T04:09:21.384Z,7.75
2022-10-09T04:12:23.776Z,6.78
2022-10-09T04:15:27.551Z,6.90
2022-10-09T04:18:30.680Z,6.60
2022-10-09T04:21:33.728Z,7.03
2022-10-09T04:24:36.037Z,8.13
2022-10-09T04:27:38.353Z,7.43
2022-10-09T04:30:41.906Z,7.10
2022-10-09T04:33:44.178Z,7.75
2022-10-09T04:36:58.110Z,6.55
2022-10-09T04:40:00.298Z,7.68
2022-10-09T04:43:02.554Z,7.68
2022-10-09T04:46:07.762Z,7.10
2022-10-09T04:49:11.531Z,7.47
2022-10-09T04:52:13.661Z,6.72
2022-10-09T04:55:15.858Z,7.07
2022-10-09T04:58:18.021Z,7.72
2022-10-09T05:01:23.330Z,8.70
2022-10-09T05:04:25.537Z,7.10
2022-10-09T05:07:27.740Z,7.30
2022-10-09T05:10:30.514Z,7.68
2022-10-09T05:13:34.968Z,7.90
2022-10-09T05:17:08.361Z,7.60
2022-10-09T05:20:00.845Z,7.78
2022-10-09T05:23:03.136Z,7.00
2022-10-09T05:26:07.715Z,6.63
2022-10-09T05:29:10.004Z,6.43
2022-10-09T05:32:14.636Z,6.85
2022-10-09T05:35:16.775Z,7.32
2022-10-09T05:38:19.352Z,6.90
2022-10-09T05:41:21.518Z,6.45
2022-10-09T05:44:23.789Z,6.35
2022-10-09T05:47:27.277Z,6.70
2022-10-09T05:50:29.383Z,6.18
2022-10-09T05:53:31.936Z,9.88
2022-10-09T05:56:35.927Z,6.28
2022-10-09T05:59:38.167Z,6.13
2022-10-09T06:02:44.326Z,5.63
2022-10-09T06:05:46.604Z,6.10
2022-10-09T06:08:49.306Z,5.80
2022-10-09T06:11:52.213Z,5.38
2022-10-09T06:14:54.394Z,6.15
2022-10-09T06:17:57.879Z,4.82
2022-10-09T06:21:01.483Z,4.35
2022-10-09T06:24:04.840Z,5.55
2022-10-09T06:27:06.996Z,4.55
2022-10-09T06:30:10.276Z,4.65
2022-10-09T06:33:13.914Z,4.40
2022-10-09T06:36:17.842Z,4.28
2022-10-09T06:39:20.032Z,5.10
2022-10-09T06:42:22.432Z,4.43
2022-10-09T06:45:37.597Z,4.53
2022-10-09T06:48:41.565Z,4.63
2022-10-09T06:51:44.203Z,3.40
2022-10-09T06:54:46.524Z,3.95
2022-10-09T06:57:48.669Z,4.00
2022-10-09T07:00:50.899Z,3.80
2022-10-09T07:03:58.463Z,4.28
2022-10-09T07:07:00.945Z,4.03
2022-10-09T07:10:03.216Z,3.47
2022-10-09T07:13:05.356Z,3.53
2022-10-09T07:16:08.043Z,3.90
2022-10-09T07:19:13.160Z,3.17
2022-10-09T07:22:15.359Z,3.60
2022-10-09T07:25:17.525Z,2.70
2022-10-09T07:28:19.857Z,4.15
2022-10-09T07:31:23.130Z,3.53
2022-10-09T07:34:29.340Z,2.67
2022-10-09T07:37:31.489Z,2.53
2022-10-09T07:40:34.380Z,2.90
2022-10-09T07:43:40.940Z,2.25
2022-10-09T07:46:43.147Z,3.13
2022-10-09T07:49:46.863Z,2.88
2022-10-09T07:52:49.201Z,2.03
2022-10-09T07:55:54.606Z,2.53
2022-10-09T07:58:58.770Z,2.72
2022-10-09T08:02:01.102Z,2.67
2022-10-09T08:05:08.513Z,2.40
2022-10-09T08:08:10.826Z,2.40
2022-10-09T08:11:15.157Z,2.30
2022-10-09T08:14:19.613Z,2.13
2022-10-09T08:17:22.131Z,2.05
2022-10-09T08:20:25.759Z,2.42
2022-10-09T08:23:28.306Z,2.35
2022-10-09T08:26:31.058Z,2.40
2022-10-09T08:29:36.697Z,2.38
2022-10-09T08:32:42.202Z,2.50
2022-10-09T08:35:45.860Z,2.40
2022-10-09T08:38:48.719Z,2.33
2022-10-09T08:41:54.757Z,2.40
2022-10-09T08:44:57.186Z,1.65
2022-10-09T08:48:03.741Z,1.95
2022-10-09T08:51:15.808Z,2.10
2022-10-09T08:54:24.664Z,2.47
2022-10-09T08:57:30.788Z,1.80
2022-10-09T09:00:36.297Z,2.15
2022-10-09T09:03:48.795Z,1.60
2022-10-09T09:06:57.182Z,2.15
2022-10-09T09:10:03.517Z,2.20
2022-10-09T09:13:16.090Z,1.85
2022-10-09T09:16:25.730Z,1.80
2022-10-09T09:19:44.554Z,1.90
2022-10-09T09:22:49.749Z,2.00
2022-10-09T09:25:52.385Z,2.17
2022-10-09T09:28:59.298Z,1.95
2022-10-09T09:32:02.001Z,2.13
2022-10-09T09:35:13.397Z,1.95
2022-10-09T09:41:19.198Z,1.95
2022-10-09T09:44:21.647Z,2.20
2022-10-09T09:47:29.653Z,1.83
2022-10-09T09:50:48.706Z,2.05
2022-10-09T09:54:00.142Z,1.27
2022-10-09T09:57:14.854Z,1.60
2022-10-09T10:00:21.106Z,1.50
2022-10-09T10:03:24.119Z,2.17
2022-10-09T10:06:30.028Z,1.30
2022-10-09T10:09:33.782Z,1.63
2022-10-09T10:12:40.566Z,1.60
2022-10-09T10:15:49.959Z,1.65
2022-10-09T10:18:53.679Z,1.10
2022-10-09T10:21:57.107Z,1.38
2022-10-09T10:25:00.667Z,1.40
2022-10-09T10:28:07.436Z,1.95
2022-10-09T10:31:15.719Z,1.50
2022-10-09T10:34:21.976Z,1.60
2022-10-09T10:37:47.484Z,1.20
2022-10-09T10:41:48.870Z,1.63
2022-10-09T10:45:26.559Z,1.95
2022-10-09T10:54:23.350Z,1.63
2022-10-09T10:57:47.999Z,1.20
2022-10-09T11:17:14.699Z,1.30
2022-10-09T12:08:06.950Z,0.88
2022-10-09T12:11:14.379Z,0.95
2022-10-09T12:14:25.414Z,0.93
2022-10-09T12:17:38.364Z,0.70
2022-10-09T12:20:45.214Z,0.80
2022-10-09T12:23:51.253Z,0.70
2022-10-09T12:26:56.026Z,0.50
2022-10-09T12:30:00.389Z,0.80
2022-10-09T12:33:07.802Z,0.60
2022-10-09T12:36:14.223Z,0.57
2022-10-09T12:39:21.018Z,0.63
2022-10-09T12:42:24.596Z,0.73
2022-10-09T12:45:30.192Z,0.80
2022-10-09T12:48:37.364Z,0.40
2022-10-09T12:51:39.742Z,0.85
2022-10-09T12:54:44.872Z,0.60
2022-10-09T12:57:52.481Z,0.70
2022-10-09T13:00:57.088Z,0.63
2022-10-09T13:04:00.641Z,0.60
2022-10-09T13:07:06.446Z,0.70
2022-10-09T13:10:17.712Z,0.82
2022-10-09T13:13:21.955Z,1.10
2022-10-09T13:16:24.894Z,0.90
2022-10-09T13:19:29.246Z,0.80
2022-10-09T13:22:33.640Z,0.90
2022-10-09T13:25:41.199Z,0.57
2022-10-09T13:28:44.164Z,0.70
2022-10-09T13:31:49.435Z,0.70
2022-10-09T13:34:54.974Z,0.90
2022-10-09T13:37:57.218Z,0.63
2022-10-09T13:41:00.685Z,1.00
2022-10-09T13:44:02.876Z,0.65
2022-10-09T13:47:05.345Z,0.73
2022-10-09T13:50:08.185Z,0.90
2022-10-09T13:53:10.371Z,1.60
2022-10-09T13:56:14.379Z,0.80
2022-10-09T13:59:17.334Z,0.80
2022-10-09T14:02:19.819Z,0.80
2022-10-09T14:05:22.215Z,0.68
2022-10-09T14:08:24.500Z,0.70
2022-10-09T14:11:28.046Z,0.68
2022-10-09T14:14:30.225Z,0.70
2022-10-09T14:17:43.784Z,0.75
2022-10-09T14:20:57.361Z,1.10
2022-10-09T14:24:40.875Z,0.77
2022-10-09T14:27:50.654Z,0.80
2022-10-09T14:31:13.841Z,0.60
2022-10-09T14:35:04.934Z,1.10
2022-10-09T14:38:45.433Z,0.90
2022-10-09T14:56:07.973Z,0.73
2022-10-09T14:59:50.534Z,1.17
2022-10-09T15:02:56.403Z,0.77
2022-10-09T15:06:25.127Z,0.90
2022-10-09T15:09:32.920Z,1.02
2022-10-09T15:16:05.157Z,0.80
2022-10-09T15:19:09.568Z,0.80
2022-10-09T15:22:14.884Z,1.00
2022-10-09T15:25:24.868Z,0.73
2022-10-09T15:28:28.116Z,0.77
2022-10-09T15:31:35.238Z,0.75
2022-10-09T15:34:41.247Z,0.70
2022-10-09T15:40:51.248Z,0.90
2022-10-09T15:44:04.705Z,0.85
2022-10-09T15:47:09.496Z,1.00
2022-10-09T15:50:22.215Z,1.70
2022-10-09T15:58:25.525Z,1.25
2022-10-09T16:01:38.444Z,1.02
2022-10-09T16:04:43.507Z,1.10
2022-10-09T16:07:47.608Z,1.30
2022-10-09T16:11:06.099Z,1.17
2022-10-09T16:25:01.059Z,1.63
2022-10-09T16:43:04.266Z,1.40
2022-10-09T16:54:48.135Z,1.17
2022-10-09T16:58:07.513Z,1.20
2022-10-09T17:02:32.653Z,1.00
2022-10-09T17:05:44.640Z,1.15
2022-10-09T17:11:55.271Z,0.85
2022-10-09T17:15:02.060Z,1.00
2022-10-09T17:18:04.671Z,1.00
2022-10-09T17:21:15.927Z,1.00
2022-10-09T17:24:18.159Z,1.00
2022-10-09T17:27:20.467Z,0.93
2022-10-09T17:30:25.030Z,1.00
2022-10-09T17:33:27.624Z,1.00
2022-10-09T17:36:33.064Z,0.98
2022-10-09T17:39:35.414Z,1.35
2022-10-09T17:42:37.613Z,1.08
2022-10-09T17:45:40.276Z,1.15
2022-10-09T17:48:50.275Z,0.90
2022-10-09T17:51:54.470Z,1.40
2022-10-09T17:54:56.848Z,1.25
2022-10-09T17:58:01.213Z,2.38
2022-10-09T18:01:05.352Z,1.15
2022-10-09T18:04:10.817Z,1.02
2022-10-09T18:07:24.754Z,1.77
2022-10-09T18:10:27.480Z,1.80
2022-10-09T18:13:32.504Z,1.77
2022-10-09T18:16:54.134Z,1.95
2022-10-09T18:20:02.963Z,2.03
2022-10-09T18:23:11.932Z,2.83
2022-10-09T18:26:26.067Z,2.20
2022-10-09T18:29:31.047Z,1.67
2022-10-09T18:32:36.158Z,2.40
2022-10-09T18:35:39.565Z,2.15
2022-10-09T18:38:54.558Z,3.08
2022-10-09T18:42:05.983Z,2.75
2022-10-09T18:45:34.442Z,2.33
2022-10-09T18:48:45.278Z,2.35
2022-10-09T18:51:49.972Z,1.77
2022-10-09T18:54:57.077Z,1.50
2022-10-09T18:58:00.479Z,1.10
2022-10-09T19:01:06.699Z,1.75
2022-10-09T19:04:29.828Z,1.38
2022-10-09T19:07:33.501Z,1.73
2022-10-09T19:10:37.234Z,1.00
2022-10-09T19:13:40.206Z,1.42
2022-10-09T19:16:47.626Z,1.52
2022-10-09T19:19:49.973Z,1.20
2022-10-09T19:22:52.170Z,1.67
2022-10-09T19:25:57.311Z,1.67
2022-10-09T19:28:59.676Z,2.22
2022-10-09T19:32:02.304Z,1.63
2022-10-09T19:35:09.266Z,1.50
2022-10-09T19:38:11.823Z,2.08
2022-10-09T19:41:16.088Z,1.77
2022-10-09T19:44:21.691Z,1.40
2022-10-09T19:47:25.889Z,1.90
2022-10-09T19:50:29.982Z,1.35
2022-10-09T19:53:32.401Z,1.70
2022-10-09T19:56:36.588Z,1.50
2022-10-09T19:59:38.770Z,1.80
2022-10-09T20:02:41.134Z,1.70
2022-10-09T20:05:43.438Z,1.98
2022-10-09T20:08:46.195Z,1.50
2022-10-09T20:11:52.983Z,2.25
2022-10-09T20:14:59.565Z,1.73
2022-10-09T20:23:17.243Z,1.55
2022-10-09T20:26:21.059Z,1.35
2022-10-09T20:29:33.237Z,1.70
2022-10-09T20:32:49.617Z,1.83
2022-10-09T20:36:03.860Z,1.42
2022-10-09T20:39:13.511Z,1.60
2022-10-09T20:42:45.551Z,1.63
2022-10-09T20:46:33.705Z,1.60
2022-10-09T20:49:56.674Z,1.65
2022-10-09T20:56:34.027Z,1.40
2022-10-09T20:59:36.275Z,1.58
2022-10-09T21:02:39.886Z,1.50
2022-10-09T21:05:42.598Z,1.98
2022-10-09T21:08:44.959Z,2.75
2022-10-09T21:11:47.336Z,2.47
2022-10-09T21:14:49.582Z,1.58
2022-10-09T21:17:53.223Z,1.80
2022-10-09T21:20:57.086Z,1.77
2022-10-09T21:24:00.817Z,2.00
2022-10-09T21:27:04.524Z,2.40
2022-10-09T21:30:08.358Z,2.17
2022-10-09T21:33:12.654Z,1.80
2022-10-09T21:36:23.080Z,2.30
2022-10-09T21:39:25.350Z,2.00
2022-10-09T21:42:27.684Z,2.15
2022-10-09T21:45:29.983Z,1.92
2022-10-09T21:48:35.821Z,1.98
2022-10-09T21:51:38.037Z,1.88
2022-10-09T21:54:41.249Z,2.80
2022-10-09T21:57:45.195Z,2.22
2022-10-09T22:00:55.398Z,3.05
2022-10-09T22:03:58.983Z,1.92
2022-10-09T22:07:01.187Z,1.65
2022-10-09T22:10:04.529Z,1.80
2022-10-09T22:13:06.797Z,1.70
2022-10-09T22:16:12.149Z,1.58
2022-10-09T22:19:15.743Z,1.98
2022-10-09T22:22:18.051Z,1.75
2022-10-09T22:25:20.334Z,2.60
2022-10-09T22:28:23.099Z,2.88
2022-10-09T22:31:27.341Z,1.58
2022-10-09T22:34:30.900Z,1.63
2022-10-09T22:37:33.097Z,1.88
2022-10-09T22:40:37.484Z,1.58
2022-10-09T22:43:41.301Z,2.17
2022-10-09T22:46:44.291Z,1.75
2022-10-09T22:49:49.579Z,2.42
2022-10-09T22:52:51.988Z,2.08
2022-10-09T22:55:54.389Z,1.92
2022-10-09T22:58:56.769Z,1.92
2022-10-09T23:02:00.049Z,1.75
2022-10-09T23:05:04.153Z,1.80
2022-10-09T23:08:06.406Z,2.65
2022-10-09T23:11:09.559Z,1.80
2022-10-09T23:14:12.251Z,1.85
2022-10-09T23:17:14.473Z,1.50
2022-10-09T23:20:18.287Z,1.60
2022-10-09T23:23:20.544Z,1.55
2022-10-09T23:26:25.532Z,1.88
2022-10-09T23:29:27.820Z,2.67
2022-10-09T23:32:30.006Z,2.00
2022-10-09T23:35:40.368Z,1.65
2022-10-09T23:38:42.949Z,2.03
2022-10-09T23:41:45.214Z,2.10
2022-10-09T23:44:47.489Z,2.78
2022-10-09T23:47:49.714Z,1.90
2022-10-09T23:50:54.122Z,2.45
2022-10-09T23:53:57.148Z,1.95
2022-10-09T23:56:59.330Z,2.17
